createdAt,value
2022-10-23T00:01:20.049Z,12.60
2022-10-23T00:08:20.808Z,12.50
2022-10-23T00:15:22.961Z,12.40
2022-10-23T00:22:23.721Z,12.40
2022-10-23T00:29:24.250Z,12.30
2022-10-23T00:36:24.748Z,12.20
2022-10-23T00:43:28.571Z,12.10
2022-10-23T00:50:32.742Z,12.00
2022-10-23T00:57:33.393Z,12.00
2022-10-23T01:04:34.688Z,12.00
2022-10-23T01:11:49.515Z,11.90
2022-10-23T01:19:15.837Z,11.80
2022-10-23T01:26:46.093Z,11.70
2022-10-23T01:33:56.100Z,11.60
2022-10-23T01:41:06.962Z,11.60
2022-10-23T01:48:12.017Z,11.60
2022-10-23T01:55:13.596Z,11.60
2022-10-23T02:02:16.117Z,11.70
2022-10-23T02:09:18.547Z,11.80
2022-10-23T02:16:47.553Z,11.90
2022-10-23T02:23:56.401Z,11.90
2022-10-23T02:31:00.869Z,12.00
2022-10-23T02:38:03.305Z,12.00
2022-10-23T02:45:23.040Z,12.10
2022-10-23T02:52:40.697Z,12.10
2022-10-23T02:59:59.016Z,12.20
2022-10-23T03:07:00.111Z,12.20
2022-10-23T03:14:00.483Z,12.20
2022-10-23T03:21:01.346Z,12.30
2022-10-23T03:28:02.544Z,12.30
2022-10-23T03:35:08.152Z,12.30
2022-10-23T03:42:08.621Z,12.30
2022-10-23T03:49:09.182Z,12.30
2022-10-23T03:56:09.678Z,12.30
2022-10-23T04:03:10.254Z,12.30
2022-10-23T04:10:11.212Z,12.30
2022-10-23T04:17:12.566Z,12.40
2022-10-23T04:24:13.489Z,12.40
2022-10-23T04:31:14.464Z,12.40
2022-10-23T04:38:15.988Z,12.50
2022-10-23T04:45:17.476Z,12.50
2022-10-23T04:52:18.219Z,12.50
2022-10-23T04:59:36.834Z,12.60
2022-10-23T05:06:37.317Z,12.60
2022-10-23T05:13:55.353Z,12.60
2022-10-23T05:21:02.182Z,12.60
2022-10-23T05:28:02.694Z,12.60
2022-10-23T05:35:08.188Z,12.60
2022-10-23T05:42:09.233Z,12.60
2022-10-23T05:49:11.326Z,12.60
2022-10-23T05:56:32.145Z,12.70
2022-10-23T06:03:41.352Z,12.70
2022-10-23T06:10:45.064Z,12.80
2022-10-23T06:17:46.353Z,12.80
2022-10-23T06:24:46.917Z,12.90
2022-10-23T06:31:53.064Z,12.90
2022-10-23T06:38:53.652Z,13.00
2022-10-23T06:46:01.888Z,13.00
2022-10-23T06:53:28.313Z,13.10
2022-10-23T07:00:39.254Z,13.10
2022-10-23T07:07:40.716Z,13.10
2022-10-23T07:14:41.171Z,13.30
2022-10-23T07:21:42.160Z,13.40
2022-10-23T07:28:55.894Z,13.50
2022-10-23T07:35:57.457Z,13.70
2022-10-23T07:43:01.772Z,13.80
2022-10-23T07:50:02.744Z,14.00
2022-10-23T07:57:03.438Z,14.20
2022-10-23T08:04:17.857Z,14.40
2022-10-23T08:11:28.633Z,14.60
2022-10-23T08:18:29.543Z,14.90
2022-10-23T08:25:30.307Z,15.20
2022-10-23T08:32:31.931Z,15.40
2022-10-23T08:39:36.962Z,15.60
2022-10-23T08:46:53.137Z,15.80
2022-10-23T08:54:20.395Z,16.00
2022-10-23T09:01:42.244Z,16.10
2022-10-23T09:08:51.421Z,16.20
2022-10-23T09:16:05.010Z,16.20
2022-10-23T09:23:19.117Z,16.30
2022-10-23T09:30:29.019Z,16.50
2022-10-23T09:37:32.521Z,16.80
2022-10-23T09:44:34.059Z,17.00
2022-10-23T09:51:34.938Z,17.10
2022-10-23T09:58:56.018Z,17.30
2022-10-23T10:06:02.849Z,17.50
2022-10-23T10:13:29.458Z,17.70
2022-10-23T10:21:02.793Z,17.80
2022-10-23T10:28:22.551Z,17.90
2022-10-23T10:35:43.233Z,18.10
2022-10-23T10:43:15.262Z,18.20
2022-10-23T10:50:23.316Z,18.30
2022-10-23T10:57:38.323Z,18.40
2022-10-23T11:04:52.484Z,18.40
2022-10-23T11:11:53.742Z,18.50
2022-10-23T11:19:21.081Z,18.50
2022-10-23T11:26:41.645Z,18.50
2022-10-23T11:34:17.627Z,18.40
2022-10-23T11:41:25.380Z,18.30
2022-10-23T11:48:39.910Z,18.10
2022-10-23T11:55:56.068Z,17.80
2022-10-23T12:02:59.215Z,17.90
2022-10-23T12:10:01.331Z,18.10
2022-10-23T12:17:02.849Z,18.40
2022-10-23T12:24:15.087Z,18.60
2022-10-23T12:31:22.163Z,18.80
2022-10-23T12:38:24.175Z,18.80
2022-10-23T12:45:40.000Z,18.90
2022-10-23T12:52:50.122Z,19.00
2022-10-23T12:59:55.233Z,18.90
2022-10-23T13:07:01.685Z,19.00
2022-10-23T13:14:12.056Z,18.90
2022-10-23T13:21:23.139Z,18.90
2022-10-23T13:28:26.875Z,18.90
2022-10-23T13:35:27.870Z,18.80
2022-10-23T13:42:29.091Z,18.80
2022-10-23T13:49:29.641Z,18.80
2022-10-23T13:56:29.828Z,18.80
2022-10-23T14:03:30.402Z,18.80
2022-10-23T14:10:30.909Z,18.80
2022-10-23T14:17:31.556Z,18.80
2022-10-23T14:24:32.262Z,18.80
2022-10-23T14:31:32.841Z,18.80
2022-10-23T14:38:33.654Z,18.80
2022-10-23T14:45:34.039Z,18.80
2022-10-23T14:52:34.917Z,18.70
2022-10-23T14:59:35.779Z,18.70
2022-10-23T15:06:36.785Z,18.60
2022-10-23T15:13:37.449Z,18.50
2022-10-23T15:20:37.804Z,18.50
2022-10-23T15:27:38.178Z,18.40
2022-10-23T15:34:42.662Z,18.30
2022-10-23T15:41:43.479Z,18.30
2022-10-23T15:48:43.682Z,18.20
2022-10-23T15:55:44.242Z,18.10
2022-10-23T16:02:44.905Z,18.00
2022-10-23T16:09:45.659Z,17.90
2022-10-23T16:16:46.329Z,17.90
2022-10-23T16:23:47.476Z,17.80
2022-10-23T16:30:47.865Z,17.70
2022-10-23T16:37:49.025Z,17.60
2022-10-23T16:44:53.178Z,17.50
2022-10-23T16:51:53.710Z,17.40
2022-10-23T16:58:54.704Z,17.20
2022-10-23T17:06:01.623Z,17.10
2022-10-23T17:13:02.779Z,16.90
2022-10-23T17:20:04.272Z,16.70
2022-10-23T17:27:05.363Z,16.60
2022-10-23T17:34:10.498Z,16.50
2022-10-23T17:41:13.614Z,16.40
2022-10-23T17:48:14.040Z,16.30
2022-10-23T17:55:14.301Z,16.20
2022-10-23T18:02:14.761Z,16.20
2022-10-23T18:09:15.693Z,16.10
2022-10-23T18:16:16.903Z,16.10
2022-10-23T18:23:17.326Z,16.00
2022-10-23T18:30:18.001Z,16.00
2022-10-23T18:37:18.446Z,16.00
2022-10-23T18:44:20.551Z,15.90
2022-10-23T18:51:26.677Z,15.80
2022-10-23T18:58:26.896Z,15.80
2022-10-23T19:05:27.337Z,15.70
2022-10-23T19:12:28.177Z,15.70
2022-10-23T19:19:43.711Z,15.60
2022-10-23T19:26:44.602Z,15.60
2022-10-23T19:33:44.888Z,15.60
2022-10-23T19:40:45.249Z,15.50
2022-10-23T19:47:46.282Z,15.40
2022-10-23T19:54:47.071Z,15.30
2022-10-23T20:01:48.843Z,15.20
2022-10-23T20:08:50.072Z,15.20
2022-10-23T20:15:50.709Z,15.20
2022-10-23T20:22:54.719Z,15.10
2022-10-23T20:29:56.084Z,15.10
2022-10-23T20:36:56.826Z,15.10
2022-10-23T20:43:57.439Z,15.10
2022-10-23T20:51:02.943Z,15.10
2022-10-23T20:58:03.255Z,15.20
2022-10-23T21:05:04.080Z,15.20
2022-10-23T21:12:04.264Z,15.40
2022-10-23T21:19:04.753Z,15.50
2022-10-23T21:26:07.510Z,15.40
2022-10-23T21:33:08.358Z,15.50
2022-10-23T21:40:09.559Z,15.50
2022-10-23T21:47:10.059Z,15.50
2022-10-23T21:54:13.186Z,15.50
2022-10-23T22:01:13.741Z,15.50
2022-10-23T22:08:13.961Z,15.40
2022-10-23T22:15:14.448Z,15.40
2022-10-23T22:22:14.621Z,15.30
2022-10-23T22:29:17.806Z,15.40
2022-10-23T22:36:18.345Z,15.30
2022-10-23T22:43:18.524Z,15.30
2022-10-23T22:50:19.240Z,15.30
2022-10-23T22:57:19.424Z,15.20
2022-10-23T23:11:51.274Z,15.10
2022-10-23T23:18:52.105Z,15.00
2022-10-23T23:25:52.627Z,15.00
2022-10-23T23:32:53.289Z,15.00
2022-10-23T23:39:53.565Z,15.00
2022-10-23T23:46:53.976Z,15.00
2022-10-23T23:53:54.665Z,15.00
